This is the latest recevied weather packets stored in our database for station/object OM8AGG-10. If no packets are shown the sender has not sent any weather packets the latest 10 day(s).
| Time | Temp. | Humidity | Pressure | Rain* | Wind** | Luminosity | Snow |
|---|---|---|---|---|---|---|---|
| 1777981798 | 26.11° C | 18% | 1014.8 hPa | - | - | - | - |
| 1777980898 | 26.11° C | 18% | 1015 hPa | - | - | - | - |
| 1777979998 | 25° C | 15% | 1015 hPa | - | - | - | - |
| 1777978197 | 25.56° C | 17% | 1015.3 hPa | - | - | - | - |
| 1777977297 | 25° C | 18% | 1015.6 hPa | - | - | - | - |
| 1777976397 | 24.44° C | 18% | 1015.6 hPa | - | - | - | - |
| 1777975497 | 25° C | 20% | 1015.9 hPa | - | - | - | - |
| 1777974597 | 23.89° C | 22% | 1016.1 hPa | - | - | - | - |
| 1777973697 | 23.89° C | 22% | 1016.3 hPa | - | - | - | - |
| 1777972797 | 23.89° C | 23% | 1016.3 hPa | - | - | - | - |
| 1777971897 | 23.89° C | 25% | 1016.3 hPa | - | - | - | - |
| 1777970997 | 22.22° C | 28% | 1016.6 hPa | - | - | - | - |
| 1777970097 | 23.33° C | 28% | 1016.7 hPa | - | - | - | - |
| 1777969196 | 22.78° C | 31% | 1016.8 hPa | - | - | - | - |
| 1777968296 | 21.67° C | 34% | 1016.9 hPa | - | - | - | - |
| 1777967396 | 20° C | 34% | 1017 hPa | - | - | - | - |
| 1777966496 | 20° C | 37% | 1017 hPa | - | - | - | - |
| 1777965596 | 19.44° C | 41% | 1017.1 hPa | - | - | - | - |
| 1777964696 | 17.78° C | 46% | 1017.2 hPa | - | - | - | - |
| 1777963796 | 16.67° C | 48% | 1017.1 hPa | - | - | - | - |
| 1777961996 | 13.89° C | 56% | 1017.2 hPa | - | - | - | - |
| 1777961540 | 11.11° C | 69% | 1017.3 hPa | - | - | - | - |
| 1777961096 | 12.78° C | 66% | 1017.2 hPa | - | - | - | - |
| 1777960196 | 11.11° C | 69% | 1017.3 hPa | - | - | - | - |
| 1777959296 | 9.44° C | 77% | 1017.4 hPa | - | - | - | - |
* Rain since midnight (hover to see other rain measurements)
** Current wind speed in m/s (hover to see current wind gust speed)